Salinas, CA

10:09 PM PDT on April 24, 2015 (GMT -0700)
Monterey Peninsula | | Change Station
CLOSE
Current Station
Airport
Location: Monterey,
Elevation: 253 ft
Nearby Weather Stations

Elev 253 ft 36.59 °N, 121.84 °W | Updated 1 hour ago

Mostly Cloudy
Mostly Cloudy
54 °F
Feels Like 54 °F
N
5
Wind Variable Wind from SW

Today
High -- | Low -- °F
--% Chance of Precip.
Yesterday
High -- | Low -- °F
Precip. -- in
6:21 AM 7:48 PM
Waxing Crescent, 42% visible
Pressure 30.12 in
Visibility 10.0 miles
Clouds Few 1600 ft
Dew Point 47 °F
Humidity 77%
Rainfall 0.00 in
Snow Depth Not available.
UV 0 out of 12
Pollen 8.30 out of 12
Air Quality Not available.
Flu Activity Sporadic
METAR KMRY 250354Z AUTO 23004KT 10SM FEW016 12/08 A3008 RMK AO2 SLP197 T01220083

More Conditions Fewer Conditions

Pressure 30.12 in
Visibility 10.0 miles
Clouds Few 1600 ft
Dew Point 47 °F
Humidity 77%
Rainfall 0.00 in
Snow Depth Not available.
UV 0 out of 12
Pollen 8.30 out of 12
Air Quality Not available.
Flu Activity Sporadic
METAR KMRY 250354Z AUTO 23004KT 10SM FEW016 12/08 A3008 RMK AO2 SLP197 T01220083

More Conditions Fewer Conditions

10-Day Weather Forecast

Almanac

Astronomy

Apr. 24, 2015 Rise Set
Actual Time
Civil Twilight
Nautical Twilight
Astronomical Twilight
Moon
Length of Visible Light
Length of Day
Tomorrow will be .
, % of the Moon is Illuminated

Today's Extremes

State Highs State Lows

Community

WunderPhotos

Upload Photos

1,816,607 photos uploaded!

WunderBlogs® & News

Nearby

Air Quality

  Air Quality AQ Index Pollutant
Not available.

Snow Depth

Station Depth Elevation

Earthquake Activity

City Distance Mag. Time & Date
Minimum magnitude displayed is 2.5.

Coastal Water Temperatures

Place Temperature

Stations

Nearby Weather Stations

Station Location Temp. Windchill Dew Point Humidity Wind Precip. Elev Updated Type